Time;durP1;ratioP1;P1;durP2;ratioP2;P2;SDS_P1;SDS_P2;PMS_P1;PMS_P2;Temp;Humidity;BMP_temperature;BMP_pressure;BME280_temperature;BME280_humidity;BME280_pressure;Samples;Min_cycle;Max_cycle;Signal;HPM_P1;HPM_P2
2022/09/19 00:11:39;;;;;;;1.53;1.10;;;;;;;7.07;78.57;99275.44;30621299;28;96672;-68
2022/09/19 00:26:40;;;;;;;2.33;1.40;;;;;;;6.76;79.13;99273.53;30619867;28;97047;-64
2022/09/19 00:41:41;;;;;;;3.72;1.50;;;;;;;6.65;79.45;99266.75;30618471;28;96656;-65
2022/09/19 00:56:45;;;;;;;2.60;1.40;;;;;;;6.43;79.52;99258.50;30616113;28;97875;-65
2022/09/19 01:11:56;;;;;;;3.45;1.90;;;;;;;6.39;80.15;99256.38;30615911;28;96950;-64
2022/09/19 01:27:25;;;;;;;5.10;1.60;;;;;;;6.33;79.88;99259.66;30614228;28;98432;-67
2022/09/19 01:42:25;;;;;;;3.70;1.48;;;;;;;6.62;81.21;99253.06;30613204;28;96871;-66
2022/09/19 01:57:50;;;;;;;3.38;1.60;;;;;;;6.48;80.36;99259.81;30612202;28;96591;-69
2022/09/19 02:12:56;;;;;;;3.58;1.63;;;;;;;6.44;80.52;99264.63;30629061;28;97978;-69
2022/09/19 02:28:03;;;;;;;3.83;2.00;;;;;;;6.63;81.37;99265.25;30631200;28;96967;-67
2022/09/19 02:43:16;;;;;;;4.43;2.30;;;;;;;6.91;81.12;99271.84;30629103;28;96667;-70
2022/09/19 02:58:19;;;;;;;3.03;1.88;;;;;;;7.03;80.44;99280.25;30628228;28;96730;-70
2022/09/19 03:13:22;;;;;;;6.90;2.90;;;;;;;7.24;80.82;99284.97;30624622;28;96692;-71
2022/09/19 03:28:22;;;;;;;4.20;2.37;;;;;;;6.95;80.32;99293.50;30623859;28;96804;-68
2022/09/19 03:43:24;;;;;;;3.93;2.73;;;;;;;6.87;81.10;99306.78;30621968;28;96626;-71
2022/09/19 03:58:25;;;;;;;3.15;1.90;;;;;;;7.03;81.72;99314.69;30620189;28;98340;-69
2022/09/19 04:13:27;;;;;;;3.08;1.60;;;;;;;7.23;81.33;99327.53;30617177;28;96541;-67
2022/09/19 04:28:27;;;;;;;2.80;1.30;;;;;;;7.37;80.52;99347.22;30613859;28;96668;-70
2022/09/19 04:43:29;;;;;;;2.10;1.20;;;;;;;7.42;80.69;99358.13;30613804;28;115049;-69
2022/09/19 04:58:29;;;;;;;3.20;1.03;;;;;;;7.52;79.93;99373.81;30613195;28;96686;-66
2022/09/19 05:13:31;;;;;;;2.38;1.00;;;;;;;7.59;80.14;99380.13;30612684;28;96642;-67
2022/09/19 05:28:32;;;;;;;1.13;0.90;;;;;;;7.67;80.48;99401.28;30611864;28;96710;-69
2022/09/19 05:43:35;;;;;;;3.40;1.23;;;;;;;7.94;80.25;99415.09;30610147;28;97329;-65
2022/09/19 05:58:36;;;;;;;2.90;1.40;;;;;;;8.07;80.21;99430.47;30611045;28;96768;-64
2022/09/19 06:28:56;;;;;;;4.33;1.57;;;;;;;8.48;78.98;99456.03;30608279;28;96721;-63
2022/09/19 06:43:56;;;;;;;2.42;1.65;;;;;;;8.73;79.10;99462.81;30605403;28;97552;-64
2022/09/19 06:58:57;;;;;;;4.28;1.73;;;;;;;9.07;78.73;99480.16;30619429;28;108361;-66
2022/09/19 07:13:57;;;;;;;3.97;2.05;;;;;;;9.45;78.19;99490.81;30620731;28;111125;-63
2022/09/19 07:28:58;;;;;;;3.70;2.00;;;;;;;9.91;77.72;99508.50;30619951;28;113963;-65
2022/09/19 07:43:58;;;;;;;6.05;2.50;;;;;;;10.74;76.15;99523.50;30618203;28;97509;-64
2022/09/19 07:59:00;;;;;;;4.78;1.95;;;;;;;12.38;73.67;99527.13;30616980;28;99192;-64
2022/09/19 08:14:00;;;;;;;3.67;1.60;;;;;;;11.98;71.78;99549.88;30617374;28;98185;-68
2022/09/19 08:29:00;;;;;;;4.05;1.85;;;;;;;11.88;70.70;99559.22;30616990;28;117916;-67
2022/09/19 08:44:29;;;;;;;5.40;1.63;;;;;;;11.75;70.98;99579.44;30614965;28;100624;-63
2022/09/19 08:59:37;;;;;;;2.30;1.70;;;;;;;14.17;67.87;99573.88;30615318;28;96779;-64
2022/09/19 09:14:46;;;;;;;2.40;1.13;;;;;;;23.40;52.80;99600.63;30612929;28;96813;-70
2022/09/19 09:29:51;;;;;;;2.57;1.20;;;;;;;17.07;54.51;99598.47;30610789;28;97090;-65
2022/09/19 09:45:05;;;;;;;4.30;1.40;;;;;;;14.78;55.94;99609.44;30609098;28;97403;-66
2022/09/19 10:15:35;;;;;;;2.40;1.40;;;;;;;14.18;57.43;99625.63;30608303;28;97487;-63
2022/09/19 10:30:41;;;;;;;3.97;2.10;;;;;;;13.36;58.58;99645.31;30619191;28;96751;-72
2022/09/19 10:45:46;;;;;;;5.53;2.73;;;;;;;13.07;59.77;99646.44;30627213;28;96925;-64
2022/09/19 11:00:52;;;;;;;4.07;2.00;;;;;;;12.96;61.11;99660.38;30624993;28;97818;-72
2022/09/19 11:15:58;;;;;;;3.27;1.77;;;;;;;12.51;61.24;99666.09;30624482;28;97286;-63
2022/09/19 11:31:24;;;;;;;6.10;2.57;;;;;;;13.08;63.57;99660.63;30623195;28;96590;-62
2022/09/19 11:47:10;;;;;;;4.43;1.40;;;;;;;13.08;62.85;99669.50;30621452;28;97326;-72
2022/09/19 12:02:47;;;;;;;1.90;1.40;;;;;;;12.67;64.92;99667.63;30662539;28;97592;-64
2022/09/19 12:18:01;;;;;;;2.97;1.50;;;;;;;12.54;65.54;99668.38;30618622;28;96755;-64
2022/09/19 12:33:11;;;;;;;1.33;1.00;;;;;;;13.07;65.36;99667.84;30614437;28;97519;-73
2022/09/19 12:48:20;;;;;;;1.33;1.13;;;;;;;15.13;63.15;99657.38;30612276;28;97494;-65
2022/09/19 13:03:25;;;;;;;1.17;0.90;;;;;;;14.04;62.61;99662.31;30614451;28;96739;-75
2022/09/19 13:33:58;;;;;;;2.33;1.33;;;;;;;12.77;65.20;99673.44;30607807;28;97250;-64
2022/09/19 13:49:05;;;;;;;2.30;1.30;;;;;;;12.35;66.27;99689.41;30610297;28;96761;-62
2022/09/19 14:19:43;;;;;;;3.10;1.70;;;;;;;12.87;66.75;99707.81;30629274;28;96857;-65
2022/09/19 14:35:08;;;;;;;3.30;1.83;;;;;;;13.10;66.67;99709.41;30625623;28;97533;-64
2022/09/19 14:50:22;;;;;;;2.20;1.67;;;;;;;13.15;66.75;99707.78;30627330;28;96674;-71
2022/09/19 15:05:29;;;;;;;3.10;1.70;;;;;;;13.24;66.83;99715.63;30626639;28;97573;-63
2022/09/19 15:20:31;;;;;;;2.77;1.83;;;;;;;13.17;67.10;99710.25;30622421;28;96511;-66
2022/09/19 15:35:32;;;;;;;3.20;1.80;;;;;;;13.58;66.68;99711.25;30622378;28;97253;-65
2022/09/19 15:50:39;;;;;;;4.37;2.30;;;;;;;13.74;66.63;99718.91;30619966;28;97787;-63
2022/09/19 16:05:40;;;;;;;4.27;1.50;;;;;;;13.53;66.90;99734.09;30619543;28;97351;-62
2022/09/19 16:20:50;;;;;;;5.22;2.83;;;;;;;12.97;67.00;99736.88;30615845;28;111693;-68
2022/09/19 16:35:54;;;;;;;6.03;2.37;;;;;;;12.56;67.71;99751.00;30614215;28;96755;-71
2022/09/19 16:50:55;;;;;;;4.47;2.10;;;;;;;12.26;68.33;99783.22;30613712;28;97102;-66
2022/09/19 17:05:57;;;;;;;2.90;2.00;;;;;;;11.90;69.80;99784.88;30612609;28;96571;-73
2022/09/19 17:20:59;;;;;;;4.50;2.00;;;;;;;11.52;71.05;99798.38;30613989;28;96618;-62
2022/09/19 17:36:01;;;;;;;4.80;1.80;;;;;;;11.06;71.74;99815.44;30610080;28;96694;-65
2022/09/19 17:51:13;;;;;;;4.33;2.00;;;;;;;10.66;72.78;99836.09;30610837;28;96758;-62
2022/09/19 18:06:13;;;;;;;4.50;2.50;;;;;;;10.25;73.95;99861.19;30608897;28;96771;-69
2022/09/19 18:21:15;;;;;;;3.58;1.90;;;;;;;10.13;74.75;99875.91;30607530;28;97842;-67
2022/09/19 18:36:21;;;;;;;5.53;2.67;;;;;;;10.07;75.56;99887.25;30605334;28;97076;-73
2022/09/19 18:51:24;;;;;;;4.70;2.70;;;;;;;10.13;76.07;99908.66;30617007;28;96640;-67
2022/09/19 19:06:26;;;;;;;7.37;2.50;;;;;;;10.16;76.01;99913.63;30627122;28;96683;-69
2022/09/19 19:21:30;;;;;;;5.63;3.10;;;;;;;10.06;75.93;99923.69;30625117;28;96958;-73
2022/09/19 19:36:31;;;;;;;4.63;2.20;;;;;;;9.91;76.38;99941.34;30622036;28;96833;-72
2022/09/19 19:51:33;;;;;;;4.55;2.28;;;;;;;9.52;77.02;99940.31;30620322;28;97690;-65
2022/09/19 20:06:39;;;;;;;4.23;2.20;;;;;;;9.60;77.13;99942.13;30618222;28;97981;-72
2022/09/19 20:21:43;;;;;;;5.43;2.80;;;;;;;9.57;77.14;99947.78;30619714;28;96605;-74
2022/09/19 20:36:43;;;;;;;4.37;3.00;;;;;;;9.43;77.41;99963.44;30617550;28;97470;-72
2022/09/19 20:51:43;;;;;;;5.88;4.20;;;;;;;9.21;77.50;99942.84;30615365;28;97396;-75
2022/09/19 21:06:44;;;;;;;7.72;4.32;;;;;;;9.13;78.29;99960.47;30614420;28;96656;-70
2022/09/19 21:21:44;;;;;;;6.53;3.35;;;;;;;8.90;78.52;99970.06;30613655;28;96689;-74
2022/09/19 21:36:45;;;;;;;6.65;4.10;;;;;;;8.73;78.67;99964.72;30612435;28;117745;-63
2022/09/19 21:51:45;;;;;;;5.55;3.25;;;;;;;8.81;79.47;99971.91;30613122;28;96891;-68
2022/09/19 22:06:45;;;;;;;5.25;3.50;;;;;;;8.85;79.80;99980.38;30612128;28;96946;-66
2022/09/19 22:21:46;;;;;;;5.15;2.63;;;;;;;8.96;80.55;99985.34;30615828;28;96842;-72
2022/09/19 22:36:46;;;;;;;4.13;2.55;;;;;;;9.00;80.45;99986.69;30629178;28;117490;-75
2022/09/19 22:51:46;;;;;;;5.32;2.30;;;;;;;9.05;80.51;99987.03;30629082;28;107617;-75
2022/09/19 23:06:47;;;;;;;3.75;2.33;;;;;;;8.98;80.63;99996.66;30627725;28;120453;-69
2022/09/19 23:21:53;;;;;;;4.53;2.08;;;;;;;9.03;80.89;100010.28;30626708;28;96667;-63
2022/09/19 23:36:54;;;;;;;2.53;1.80;;;;;;;8.91;80.52;100016.91;30624007;28;96759;-76
2022/09/19 23:51:54;;;;;;;3.77;2.70;;;;;;;8.79;80.96;100027.84;30623506;28;97274;-72
